Time;durP1;ratioP1;P1;durP2;ratioP2;P2;SDS_P1;SDS_P2;PMS_P1;PMS_P2;Temp;Humidity;BMP_temperature;BMP_pressure;BME280_temperature;BME280_humidity;BME280_pressure;Samples;Min_cycle;Max_cycle;Signal;HPM_P1;HPM_P2
2023/01/18 00:00:14;;;;;;;2.83;2.20;;;;;;;;;;5102991;28;20254;-83
2023/01/18 00:02:45;;;;;;;2.22;1.98;;;;;;;;;;5094187;28;20219;-83
2023/01/18 00:05:13;;;;;;;2.28;2.05;;;;;;;;;;5097987;28;20277;-82
2023/01/18 00:07:41;;;;;;;3.83;2.30;;;;;;;;;;5097457;28;20259;-82
2023/01/18 00:10:10;;;;;;;2.45;2.22;;;;;;;;;;5097405;28;20218;-82
2023/01/18 00:12:39;;;;;;;4.78;2.42;;;;;;;;;;5097736;28;20204;-83
2023/01/18 00:15:08;;;;;;;3.00;1.80;;;;;;;;;;5097537;28;20283;-82
2023/01/18 00:17:46;;;;;;;4.70;2.20;;;;;;;;;;5097307;28;20260;-82
2023/01/18 00:20:14;;;;;;;2.30;1.95;;;;;;;;;;5097337;28;20192;-82
2023/01/18 00:22:41;;;;;;;2.00;1.90;;;;;;;;;;5096359;28;20252;-82
2023/01/18 00:25:09;;;;;;;2.60;2.00;;;;;;;;;;5096980;28;20219;-83
2023/01/18 00:27:39;;;;;;;2.55;1.88;;;;;;;;;;5097254;28;20316;-82
2023/01/18 00:30:09;;;;;;;3.55;2.10;;;;;;;;;;5108775;28;20290;-84
2023/01/18 00:32:37;;;;;;;2.63;1.55;;;;;;;;;;5122065;28;20616;-85
2023/01/18 00:35:07;;;;;;;5.05;2.42;;;;;;;;;;5120857;28;20267;-85
2023/01/18 00:37:34;;;;;;;2.70;2.15;;;;;;;;;;5121188;28;20199;-84
2023/01/18 00:40:03;;;;;;;3.38;2.20;;;;;;;;;;5121403;28;20242;-83
2023/01/18 00:45:18;;;;;;;2.58;2.38;;;;;;;;;;5121147;28;20300;-84
2023/01/18 00:47:45;;;;;;;2.10;1.90;;;;;;;;;;5120805;28;20250;-83
2023/01/18 00:50:13;;;;;;;7.90;3.50;;;;;;;;;;5122824;28;20235;-85
2023/01/18 00:52:45;;;;;;;5.15;2.38;;;;;;;;;;5121298;28;20219;-87
2023/01/18 00:55:13;;;;;;;3.42;2.47;;;;;;;;;;5121090;27;20223;-89
2023/01/18 00:57:41;;;;;;;2.70;2.08;;;;;;;;;;5121065;28;20183;-89
2023/01/18 01:00:14;;;;;;;3.03;2.50;;;;;;;;;;5121144;27;20231;-87
2023/01/18 01:02:43;;;;;;;6.65;2.53;;;;;;;;;;5121819;28;20207;-88
2023/01/18 01:08:05;;;;;;;3.45;1.80;;;;;;;;;;5121052;28;20284;-88
2023/01/18 01:10:33;;;;;;;2.75;2.55;;;;;;;;;;5121082;28;20287;-87
2023/01/18 01:26:48;;;;;;;2.67;2.20;;;;;;;;;;5120968;27;20217;-87
2023/01/18 01:29:16;;;;;;;2.22;2.03;;;;;;;;;;5120621;28;20735;-87
2023/01/18 01:31:44;;;;;;;4.32;2.50;;;;;;;;;;5120475;28;20241;-87
2023/01/18 01:34:16;;;;;;;2.22;1.80;;;;;;;;;;5120201;28;20215;-87
2023/01/18 01:36:43;;;;;;;2.17;1.60;;;;;;;;;;5121044;28;20561;-88
2023/01/18 01:39:12;;;;;;;2.08;1.80;;;;;;;;;;5124217;28;20216;-88
2023/01/18 01:41:39;;;;;;;2.55;2.08;;;;;;;;;;5128350;27;20192;-88
2023/01/18 01:44:50;;;;;;;2.53;1.90;;;;;;;;;;5126420;27;20196;-88
2023/01/18 01:47:34;;;;;;;3.08;2.78;;;;;;;;;;5124216;27;20303;-87
2023/01/18 01:50:14;;;;;;;3.03;2.70;;;;;;;;;;5122430;28;20272;-87
2023/01/18 01:52:43;;;;;;;2.88;2.42;;;;;;;;;;5124209;27;20652;-87
2023/01/18 01:55:16;;;;;;;2.85;2.13;;;;;;;;;;5122234;28;20212;-88
2023/01/18 01:57:46;;;;;;;3.45;2.83;;;;;;;;;;5122273;27;20235;-88
2023/01/18 02:00:18;;;;;;;4.45;3.10;;;;;;;;;;5120725;27;20200;-86
2023/01/18 02:02:48;;;;;;;5.20;3.08;;;;;;;;;;5122385;28;20789;-87
2023/01/18 02:05:18;;;;;;;5.82;3.60;;;;;;;;;;5122877;28;20677;-86
2023/01/18 02:07:46;;;;;;;5.38;3.03;;;;;;;;;;5122611;28;20309;-87
2023/01/18 02:10:13;;;;;;;5.93;2.80;;;;;;;;;;5122316;28;20583;-87
2023/01/18 02:12:43;;;;;;;4.15;2.97;;;;;;;;;;5123067;28;20227;-86
2023/01/18 02:15:11;;;;;;;3.15;2.60;;;;;;;;;;5123110;28;20254;-86
2023/01/18 02:17:55;;;;;;;3.70;2.65;;;;;;;;;;5121788;28;20206;-87
2023/01/18 02:21:11;;;;;;;3.95;2.47;;;;;;;;;;5119042;28;20207;-86
2023/01/18 02:24:36;;;;;;;4.88;2.75;;;;;;;;;;5119393;28;20195;-88
2023/01/18 02:27:07;;;;;;;3.28;2.50;;;;;;;;;;5097342;27;20272;-87
2023/01/18 02:30:07;;;;;;;2.92;2.55;;;;;;;;;;5112834;28;20215;-89
2023/01/18 02:33:01;;;;;;;9.80;3.58;;;;;;;;;;5091137;28;20207;-88
2023/01/18 02:35:41;;;;;;;3.40;3.03;;;;;;;;;;5098153;28;20303;-87
2023/01/18 02:38:12;;;;;;;3.50;3.20;;;;;;;;;;5098697;28;20322;-87
2023/01/18 02:40:55;;;;;;;3.88;2.90;;;;;;;;;;5098474;28;20290;-87
2023/01/18 02:46:33;;;;;;;2.60;2.40;;;;;;;;;;5098510;28;20243;-86
2023/01/18 02:49:08;;;;;;;2.70;2.40;;;;;;;;;;5098051;28;20651;-86
2023/01/18 02:51:36;;;;;;;2.42;2.22;;;;;;;;;;5098808;28;20610;-86
2023/01/18 02:54:07;;;;;;;2.88;2.30;;;;;;;;;;5097969;28;20249;-87
2023/01/18 02:56:39;;;;;;;2.03;1.83;;;;;;;;;;5097342;28;20285;-87
2023/01/18 02:59:11;;;;;;;2.42;1.83;;;;;;;;;;5099948;28;20260;-87
2023/01/18 03:01:43;;;;;;;2.33;2.13;;;;;;;;;;5117474;28;20263;-88
2023/01/18 03:04:16;;;;;;;3.78;2.85;;;;;;;;;;5118389;28;20221;-87
2023/01/18 03:06:50;;;;;;;6.57;2.72;;;;;;;;;;5118986;28;20758;-88
2023/01/18 03:09:20;;;;;;;4.70;2.95;;;;;;;;;;5118818;28;20269;-87
2023/01/18 03:11:56;;;;;;;5.15;3.60;;;;;;;;;;5118374;28;20196;-87
2023/01/18 03:14:37;;;;;;;3.95;2.67;;;;;;;;;;5118520;28;20214;-87
2023/01/18 03:17:14;;;;;;;3.40;2.88;;;;;;;;;;5118800;28;20707;-87
2023/01/18 03:20:06;;;;;;;3.78;2.75;;;;;;;;;;5118493;28;20180;-88
2023/01/18 03:25:41;;;;;;;3.40;3.10;;;;;;;;;;5035595;28;20217;-88
2023/01/18 03:33:52;;;;;;;8.70;2.60;;;;;;;;;;5035254;28;20248;-88
2023/01/18 03:36:25;;;;;;;1.98;1.60;;;;;;;;;;5048489;28;20227;-88
2023/01/18 03:38:56;;;;;;;2.13;2.03;;;;;;;;;;5118368;27;20212;-87
2023/01/18 03:41:28;;;;;;;3.35;2.88;;;;;;;;;;5119158;28;20183;-87
2023/01/18 03:44:02;;;;;;;2.63;2.42;;;;;;;;;;5119176;28;20245;-88
2023/01/18 03:46:33;;;;;;;3.78;2.78;;;;;;;;;;5118878;28;20220;-87
2023/01/18 03:49:02;;;;;;;3.20;2.53;;;;;;;;;;5119191;28;20219;-88
2023/01/18 03:51:46;;;;;;;3.40;2.65;;;;;;;;;;5119905;28;20538;-88
2023/01/18 03:54:20;;;;;;;2.70;2.50;;;;;;;;;;5120070;27;20250;-88
2023/01/18 03:56:52;;;;;;;2.88;2.63;;;;;;;;;;5119816;28;20231;-88
2023/01/18 03:59:20;;;;;;;3.03;2.72;;;;;;;;;;5115615;28;20575;-87
2023/01/18 04:01:49;;;;;;;2.30;2.10;;;;;;;;;;5099602;28;20214;-88
2023/01/18 04:04:18;;;;;;;4.03;2.10;;;;;;;;;;5099607;28;20279;-88
2023/01/18 04:06:46;;;;;;;3.15;2.38;;;;;;;;;;5099484;28;20244;-89
2023/01/18 04:09:13;;;;;;;3.55;2.40;;;;;;;;;;5098668;28;20221;-88
2023/01/18 04:11:41;;;;;;;5.03;2.35;;;;;;;;;;5098889;28;20232;-89
2023/01/18 04:14:08;;;;;;;3.97;2.20;;;;;;;;;;5099087;28;20243;-88
2023/01/18 04:16:36;;;;;;;2.53;2.33;;;;;;;;;;5099093;28;20231;-88
2023/01/18 04:19:06;;;;;;;2.95;2.65;;;;;;;;;;5099480;28;20644;-88
2023/01/18 04:21:35;;;;;;;5.63;2.55;;;;;;;;;;5098521;28;20665;-89
2023/01/18 04:24:02;;;;;;;3.05;2.83;;;;;;;;;;5099827;28;20235;-88
2023/01/18 04:26:30;;;;;;;3.58;2.92;;;;;;;;;;5099294;28;20220;-88
2023/01/18 04:28:57;;;;;;;2.92;2.20;;;;;;;;;;5099037;28;20259;-87
2023/01/18 04:31:25;;;;;;;3.63;2.40;;;;;;;;;;5099822;28;20197;-88
2023/01/18 04:33:53;;;;;;;2.28;2.13;;;;;;;;;;5100151;28;20572;-88
2023/01/18 04:36:21;;;;;;;6.47;2.85;;;;;;;;;;5098455;28;20300;-87
2023/01/18 04:38:53;;;;;;;5.03;3.25;;;;;;;;;;5098868;28;20291;-88
2023/01/18 04:41:21;;;;;;;2.88;2.67;;;;;;;;;;5098520;28;20196;-87
2023/01/18 04:43:48;;;;;;;4.13;2.75;;;;;;;;;;5097927;28;20256;-88
2023/01/18 04:46:16;;;;;;;3.95;2.28;;;;;;;;;;5098406;28;20307;-89
2023/01/18 04:48:44;;;;;;;3.45;2.95;;;;;;;;;;5097976;28;20235;-89
2023/01/18 04:51:13;;;;;;;3.70;3.22;;;;;;;;;;5099915;28;20704;-89
2023/01/18 04:53:49;;;;;;;3.67;2.47;;;;;;;;;;5102340;28;20279;-88
2023/01/18 04:56:18;;;;;;;5.88;3.63;;;;;;;;;;5100855;28;20227;-88
2023/01/18 04:58:46;;;;;;;2.53;2.28;;;;;;;;;;5101304;28;20232;-89
2023/01/18 05:01:15;;;;;;;4.93;2.92;;;;;;;;;;5102380;28;20192;-88
2023/01/18 05:03:43;;;;;;;5.03;3.50;;;;;;;;;;5102953;28;20200;-87
2023/01/18 05:06:12;;;;;;;3.78;2.97;;;;;;;;;;5101725;28;20309;-88
2023/01/18 05:08:40;;;;;;;2.90;2.60;;;;;;;;;;5101555;28;20285;-89
2023/01/18 05:11:11;;;;;;;4.32;2.97;;;;;;;;;;5102164;28;20657;-88
2023/01/18 05:13:39;;;;;;;2.58;2.30;;;;;;;;;;5102437;28;20260;-89
2023/01/18 05:16:08;;;;;;;3.15;2.85;;;;;;;;;;5102393;28;20253;-87
2023/01/18 05:18:35;;;;;;;3.50;2.80;;;;;;;;;;5102665;28;20595;-87
2023/01/18 05:21:03;;;;;;;5.05;3.22;;;;;;;;;;5102223;28;20232;-88
2023/01/18 05:23:30;;;;;;;5.10;3.60;;;;;;;;;;5102458;28;20817;-87
2023/01/18 05:25:59;;;;;;;5.32;3.38;;;;;;;;;;5102699;28;20688;-88
2023/01/18 05:28:28;;;;;;;4.05;3.65;;;;;;;;;;5101942;28;20226;-87
2023/01/18 05:30:56;;;;;;;3.40;2.42;;;;;;;;;;5101715;28;20224;-87
2023/01/18 05:33:24;;;;;;;6.93;2.88;;;;;;;;;;5101397;28;20226;-89
2023/01/18 05:35:53;;;;;;;3.53;2.88;;;;;;;;;;5100923;28;20255;-88
2023/01/18 05:38:22;;;;;;;3.60;3.30;;;;;;;;;;5100268;28;20227;-88
2023/01/18 05:40:52;;;;;;;6.50;3.80;;;;;;;;;;5101411;28;20262;-86
2023/01/18 05:43:20;;;;;;;3.50;3.03;;;;;;;;;;5101044;28;20212;-86
2023/01/18 05:45:49;;;;;;;3.28;2.88;;;;;;;;;;5116930;28;20251;-88
2023/01/18 05:48:17;;;;;;;4.13;3.72;;;;;;;;;;5120606;27;20291;-87
2023/01/18 05:50:47;;;;;;;5.38;3.35;;;;;;;;;;5122005;28;20216;-88
2023/01/18 05:53:17;;;;;;;6.22;3.70;;;;;;;;;;5121248;28;20215;-88
2023/01/18 05:55:44;;;;;;;5.28;2.95;;;;;;;;;;5119773;28;20322;-87
2023/01/18 05:58:12;;;;;;;5.40;3.60;;;;;;;;;;5118236;28;20291;-88
2023/01/18 06:00:39;;;;;;;3.60;3.30;;;;;;;;;;5119965;28;20278;-89
2023/01/18 06:03:08;;;;;;;4.93;3.78;;;;;;;;;;5120256;28;20290;-88
2023/01/18 06:05:36;;;;;;;6.93;3.70;;;;;;;;;;5121343;28;20228;-87
2023/01/18 06:08:03;;;;;;;6.85;4.10;;;;;;;;;;5121153;28;20310;-88
2023/01/18 06:10:31;;;;;;;5.30;3.75;;;;;;;;;;5120767;28;20223;-89
2023/01/18 06:12:58;;;;;;;8.98;4.88;;;;;;;;;;5120822;28;20195;-88
2023/01/18 06:15:26;;;;;;;6.13;3.60;;;;;;;;;;5121973;28;20224;-88
2023/01/18 06:17:53;;;;;;;4.22;3.67;;;;;;;;;;5122509;28;20223;-87
2023/01/18 06:20:22;;;;;;;4.90;3.95;;;;;;;;;;5121765;28;20222;-89
2023/01/18 06:22:50;;;;;;;5.18;3.55;;;;;;;;;;5120503;28;20358;-85
2023/01/18 06:25:18;;;;;;;3.80;3.47;;;;;;;;;;5119428;28;20719;-84
2023/01/18 06:27:45;;;;;;;3.67;3.28;;;;;;;;;;5119611;28;20204;-83
2023/01/18 06:30:16;;;;;;;3.35;2.92;;;;;;;;;;5108191;28;20272;-84
2023/01/18 06:32:43;;;;;;;2.88;2.58;;;;;;;;;;5096125;28;20220;-83
2023/01/18 06:35:11;;;;;;;3.15;2.72;;;;;;;;;;5095507;28;20267;-85
2023/01/18 06:37:40;;;;;;;2.55;2.35;;;;;;;;;;5095588;28;20287;-82
2023/01/18 06:40:09;;;;;;;3.85;3.55;;;;;;;;;;5095810;28;20235;-84
2023/01/18 06:42:37;;;;;;;4.47;3.72;;;;;;;;;;5095377;28;20290;-83
2023/01/18 06:45:06;;;;;;;5.07;3.40;;;;;;;;;;5110266;27;20225;-82
2023/01/18 06:47:33;;;;;;;4.05;3.58;;;;;;;;;;5115344;28;20203;-82
2023/01/18 06:50:01;;;;;;;4.00;3.60;;;;;;;;;;5114901;28;20314;-81
2023/01/18 06:52:28;;;;;;;2.67;2.22;;;;;;;;;;5115670;28;20203;-82
2023/01/18 06:54:58;;;;;;;3.58;3.28;;;;;;;;;;5115109;28;20230;-83
2023/01/18 06:57:25;;;;;;;2.85;2.55;;;;;;;;;;5102953;27;20553;-84
2023/01/18 06:59:53;;;;;;;2.70;2.50;;;;;;;;;;5102460;28;20265;-84
2023/01/18 07:02:21;;;;;;;2.70;2.50;;;;;;;;;;5114831;28;20656;-84
2023/01/18 07:04:49;;;;;;;3.67;3.38;;;;;;;;;;5113980;28;20206;-84
2023/01/18 07:07:16;;;;;;;3.55;3.10;;;;;;;;;;5114463;28;20267;-84
2023/01/18 07:09:44;;;;;;;3.42;3.13;;;;;;;;;;5114296;28;20308;-83
2023/01/18 07:12:12;;;;;;;4.05;3.67;;;;;;;;;;5114227;28;20246;-82
2023/01/18 07:14:40;;;;;;;4.95;4.45;;;;;;;;;;5113930;28;20291;-85
2023/01/18 07:17:08;;;;;;;4.35;3.95;;;;;;;;;;5114867;28;20687;-83
2023/01/18 07:19:36;;;;;;;5.93;4.80;;;;;;;;;;5114145;28;20207;-82
2023/01/18 07:22:03;;;;;;;5.32;4.82;;;;;;;;;;5115118;28;20634;-81
2023/01/18 07:24:31;;;;;;;4.00;3.60;;;;;;;;;;5114987;28;20192;-82
2023/01/18 07:26:59;;;;;;;3.90;3.60;;;;;;;;;;5114847;28;20658;-82
2023/01/18 07:29:28;;;;;;;4.35;3.95;;;;;;;;;;5110986;28;20204;-84
2023/01/18 07:31:56;;;;;;;4.28;3.85;;;;;;;;;;5094706;28;20829;-84
2023/01/18 07:34:23;;;;;;;4.00;3.60;;;;;;;;;;5095093;28;20246;-83
2023/01/18 07:36:51;;;;;;;4.20;3.35;;;;;;;;;;5095040;28;20252;-82
2023/01/18 07:39:19;;;;;;;6.40;3.70;;;;;;;;;;5094372;28;20239;-83
2023/01/18 07:41:47;;;;;;;3.53;3.10;;;;;;;;;;5094530;28;20192;-84
2023/01/18 07:44:15;;;;;;;5.38;3.50;;;;;;;;;;5094598;28;20235;-84
2023/01/18 07:46:43;;;;;;;3.65;3.20;;;;;;;;;;5094512;28;20284;-83
2023/01/18 07:49:11;;;;;;;4.50;4.10;;;;;;;;;;5094193;28;20747;-83
2023/01/18 07:51:38;;;;;;;4.95;4.22;;;;;;;;;;5094908;28;20228;-83
2023/01/18 07:54:06;;;;;;;5.10;3.80;;;;;;;;;;5094931;28;20263;-82
2023/01/18 07:56:33;;;;;;;6.28;4.68;;;;;;;;;;5095389;28;20271;-83
2023/01/18 07:59:01;;;;;;;6.30;4.45;;;;;;;;;;5095437;28;20260;-83
2023/01/18 08:01:28;;;;;;;6.50;4.20;;;;;;;;;;5114909;28;20275;-83
2023/01/18 08:03:57;;;;;;;13.10;4.05;;;;;;;;;;5114345;28;20207;-83
2023/01/18 08:06:26;;;;;;;5.57;4.25;;;;;;;;;;5114701;28;20224;-84
2023/01/18 08:08:55;;;;;;;4.60;3.85;;;;;;;;;;5114268;28;20626;-83
2023/01/18 08:11:23;;;;;;;5.38;3.67;;;;;;;;;;5114922;28;20219;-84
2023/01/18 08:13:51;;;;;;;6.00;4.28;;;;;;;;;;5110804;28;20645;-83
2023/01/18 08:16:19;;;;;;;4.53;3.80;;;;;;;;;;5094202;28;20228;-84
2023/01/18 08:18:49;;;;;;;4.75;3.13;;;;;;;;;;5092891;28;20291;-82
2023/01/18 08:21:18;;;;;;;6.28;3.58;;;;;;;;;;5093836;28;20196;-83
2023/01/18 08:23:46;;;;;;;3.40;3.10;;;;;;;;;;5093802;28;20295;-84
2023/01/18 08:26:14;;;;;;;3.20;2.88;;;;;;;;;;5102282;28;20315;-84
2023/01/18 08:28:43;;;;;;;4.90;3.17;;;;;;;;;;5104791;28;20201;-83
2023/01/18 08:31:14;;;;;;;6.30;4.75;;;;;;;;;;5117756;28;20222;-83
2023/01/18 08:33:44;;;;;;;5.20;3.78;;;;;;;;;;5118977;28;20199;-84
2023/01/18 08:36:17;;;;;;;5.07;4.13;;;;;;;;;;5118960;28;20220;-85
2023/01/18 08:38:49;;;;;;;6.25;3.70;;;;;;;;;;5118168;28;20223;-84
2023/01/18 08:41:16;;;;;;;9.90;5.15;;;;;;;;;;5118120;28;20198;-84
2023/01/18 08:43:46;;;;;;;7.50;4.43;;;;;;;;;;5115358;28;20210;-85
2023/01/18 08:46:14;;;;;;;4.20;3.53;;;;;;;;;;5098271;28;20220;-82
2023/01/18 08:48:42;;;;;;;4.30;3.90;;;;;;;;;;5096680;28;20205;-84
2023/01/18 08:51:10;;;;;;;7.03;5.28;;;;;;;;;;5097254;28;20615;-83
2023/01/18 08:53:39;;;;;;;5.30;4.45;;;;;;;;;;5097396;28;20269;-84
2023/01/18 08:56:07;;;;;;;4.65;3.28;;;;;;;;;;5097473;28;20260;-84
2023/01/18 08:58:35;;;;;;;3.53;3.22;;;;;;;;;;5096203;28;20210;-84
2023/01/18 09:01:05;;;;;;;4.00;3.17;;;;;;;;;;5096871;28;20232;-84
2023/01/18 09:03:34;;;;;;;3.80;3.50;;;;;;;;;;5097082;28;20219;-85
2023/01/18 09:06:01;;;;;;;5.00;4.47;;;;;;;;;;5096161;28;20652;-84
2023/01/18 09:08:30;;;;;;;4.82;4.43;;;;;;;;;;5096462;28;20296;-84
2023/01/18 09:11:03;;;;;;;5.65;4.57;;;;;;;;;;5096467;28;20201;-85
2023/01/18 09:13:30;;;;;;;4.82;4.32;;;;;;;;;;5098117;28;20680;-84
2023/01/18 09:16:02;;;;;;;6.93;5.18;;;;;;;;;;5116393;28;20226;-83
2023/01/18 09:18:30;;;;;;;10.15;5.47;;;;;;;;;;5115850;28;20243;-86
2023/01/18 09:20:58;;;;;;;5.30;4.13;;;;;;;;;;5116753;28;20624;-83
2023/01/18 09:23:26;;;;;;;6.90;5.97;;;;;;;;;;5107672;28;20231;-86
2023/01/18 09:26:04;;;;;;;6.10;5.32;;;;;;;;;;5113735;28;20216;-85
2023/01/18 09:28:32;;;;;;;5.85;5.10;;;;;;;;;;5108072;28;20535;-86
2023/01/18 09:31:03;;;;;;;13.02;9.70;;;;;;;;;;5115627;28;20589;-86
2023/01/18 09:33:31;;;;;;;9.50;8.38;;;;;;;;;;5115861;28;20226;-84
2023/01/18 09:36:03;;;;;;;10.82;8.68;;;;;;;;;;5115575;28;20226;-85
2023/01/18 09:38:31;;;;;;;6.35;5.25;;;;;;;;;;5116326;28;20204;-83
2023/01/18 09:40:59;;;;;;;6.85;5.30;;;;;;;;;;5116503;28;20299;-85
2023/01/18 09:43:31;;;;;;;6.43;5.82;;;;;;;;;;5116001;28;20199;-84
2023/01/18 09:46:00;;;;;;;6.43;5.82;;;;;;;;;;5116232;28;20302;-85
2023/01/18 09:48:32;;;;;;;6.28;5.50;;;;;;;;;;5115503;28;20195;-85
2023/01/18 09:51:04;;;;;;;7.63;6.00;;;;;;;;;;5115975;28;20184;-85
2023/01/18 09:53:50;;;;;;;12.07;6.78;;;;;;;;;;5116048;28;20236;-84
2023/01/18 09:56:21;;;;;;;8.63;6.78;;;;;;;;;;5115622;28;20310;-85
2023/01/18 09:59:02;;;;;;;6.05;4.80;;;;;;;;;;5115302;28;20184;-82
2023/01/18 10:01:32;;;;;;;4.68;4.28;;;;;;;;;;5115445;28;20188;-86
2023/01/18 10:04:02;;;;;;;5.68;5.05;;;;;;;;;;5114424;28;20226;-85
2023/01/18 10:06:35;;;;;;;8.23;5.95;;;;;;;;;;5094943;28;20289;-85
2023/01/18 10:09:04;;;;;;;6.90;6.15;;;;;;;;;;5094820;28;20591;-85
2023/01/18 10:11:43;;;;;;;7.45;6.53;;;;;;;;;;5094516;28;20207;-86
2023/01/18 10:14:19;;;;;;;9.15;7.72;;;;;;;;;;5094911;28;20184;-86
2023/01/18 10:16:56;;;;;;;8.52;7.57;;;;;;;;;;5095416;28;20215;-87
2023/01/18 10:19:27;;;;;;;10.35;8.18;;;;;;;;;;5093961;28;20203;-86
2023/01/18 10:22:00;;;;;;;7.68;6.50;;;;;;;;;;5094799;28;20220;-86
2023/01/18 10:24:56;;;;;;;6.78;5.95;;;;;;;;;;5095467;28;20625;-83
2023/01/18 10:27:53;;;;;;;5.70;5.07;;;;;;;;;;5093502;28;20211;-84
2023/01/18 10:30:37;;;;;;;7.60;6.70;;;;;;;;;;5095210;28;20192;-84
2023/01/18 10:33:16;;;;;;;7.72;5.07;;;;;;;;;;5094590;28;20303;-86
2023/01/18 10:35:46;;;;;;;6.32;5.60;;;;;;;;;;5095146;28;20235;-86
2023/01/18 10:38:17;;;;;;;5.60;5.05;;;;;;;;;;5099980;28;20191;-86
2023/01/18 10:40:50;;;;;;;6.22;5.55;;;;;;;;;;5115838;28;20187;-84
2023/01/18 10:43:19;;;;;;;8.10;6.85;;;;;;;;;;5117995;28;20196;-85
2023/01/18 10:45:48;;;;;;;5.90;4.90;;;;;;;;;;5115740;28;20310;-84
2023/01/18 10:48:29;;;;;;;5.10;4.60;;;;;;;;;;5115369;28;20282;-84
2023/01/18 10:50:59;;;;;;;5.90;5.40;;;;;;;;;;5115105;27;20194;-84
2023/01/18 10:53:31;;;;;;;10.25;7.82;;;;;;;;;;5115491;28;20219;-85
2023/01/18 10:56:05;;;;;;;6.85;6.15;;;;;;;;;;5115617;28;20266;-84
2023/01/18 10:58:37;;;;;;;5.90;5.30;;;;;;;;;;5115054;28;20320;-84
2023/01/18 11:01:06;;;;;;;6.47;5.80;;;;;;;;;;5116040;28;20192;-86
2023/01/18 11:03:45;;;;;;;8.93;7.03;;;;;;;;;;5115964;28;20235;-86
2023/01/18 11:06:15;;;;;;;7.32;6.68;;;;;;;;;;5115066;28;20294;-84
2023/01/18 11:08:43;;;;;;;9.18;8.18;;;;;;;;;;5116016;28;20188;-84
2023/01/18 11:11:19;;;;;;;8.95;7.43;;;;;;;;;;5115686;27;20246;-84
2023/01/18 11:13:49;;;;;;;7.20;6.50;;;;;;;;;;5116319;28;20203;-86
2023/01/18 11:16:20;;;;;;;8.50;6.72;;;;;;;;;;5115978;28;20228;-84
2023/01/18 11:19:01;;;;;;;8.07;7.30;;;;;;;;;;5116242;28;20205;-84
2023/01/18 11:21:39;;;;;;;7.40;6.40;;;;;;;;;;5116047;28;20704;-84
2023/01/18 11:24:09;;;;;;;6.07;5.20;;;;;;;;;;5116381;28;20187;-84
2023/01/18 11:26:52;;;;;;;10.35;8.63;;;;;;;;;;5115566;27;20576;-85
2023/01/18 11:29:22;;;;;;;10.13;7.85;;;;;;;;;;5115611;28;20199;-84
2023/01/18 11:31:53;;;;;;;10.15;7.93;;;;;;;;;;5115806;28;20195;-86
2023/01/18 11:34:26;;;;;;;12.35;8.68;;;;;;;;;;5117488;28;20263;-83
2023/01/18 11:36:53;;;;;;;7.80;6.78;;;;;;;;;;5118304;28;20763;-85
2023/01/18 11:39:28;;;;;;;10.27;6.85;;;;;;;;;;5117726;28;20564;-86
2023/01/18 11:42:21;;;;;;;7.95;7.15;;;;;;;;;;5117598;28;20700;-84
2023/01/18 11:45:11;;;;;;;10.75;9.30;;;;;;;;;;5118059;28;20270;-84
2023/01/18 11:48:02;;;;;;;11.85;8.88;;;;;;;;;;5118989;28;20203;-86
2023/01/18 11:50:39;;;;;;;7.45;6.13;;;;;;;;;;5117770;28;20188;-85
2023/01/18 11:53:19;;;;;;;8.65;6.65;;;;;;;;;;5118074;28;20203;-84
2023/01/18 11:56:03;;;;;;;6.60;5.85;;;;;;;;;;5118561;28;20323;-83
2023/01/18 11:58:31;;;;;;;6.13;5.53;;;;;;;;;;5119206;28;20226;-85
2023/01/18 12:01:20;;;;;;;6.10;5.50;;;;;;;;;;5121338;28;20266;-84
2023/01/18 12:03:55;;;;;;;9.75;6.57;;;;;;;;;;5121637;28;20184;-84
2023/01/18 12:06:42;;;;;;;6.00;5.32;;;;;;;;;;5119845;28;20317;-83
2023/01/18 12:09:24;;;;;;;6.25;4.35;;;;;;;;;;5109317;28;20209;-84
2023/01/18 12:12:04;;;;;;;5.30;4.80;;;;;;;;;;5121373;28;20190;-84
2023/01/18 12:14:49;;;;;;;4.75;4.25;;;;;;;;;;5120777;27;20542;-84
2023/01/18 12:17:29;;;;;;;5.70;3.92;;;;;;;;;;5119943;28;20183;-84
2023/01/18 12:20:21;;;;;;;3.42;3.10;;;;;;;;;;5121454;28;20215;-86
2023/01/18 12:23:10;;;;;;;3.25;2.95;;;;;;;;;;5121560;28;20183;-85
2023/01/18 12:26:08;;;;;;;3.20;2.78;;;;;;;;;;5120806;28;20219;-85
2023/01/18 12:28:54;;;;;;;2.33;2.15;;;;;;;;;;5107522;28;20203;-85
2023/01/18 12:31:30;;;;;;;1.90;1.80;;;;;;;;;;5121650;28;20287;-84
2023/01/18 12:34:06;;;;;;;2.03;1.67;;;;;;;;;;5121335;28;20755;-84
2023/01/18 12:36:51;;;;;;;2.85;2.50;;;;;;;;;;5121784;28;20310;-83
2023/01/18 12:39:32;;;;;;;3.13;2.35;;;;;;;;;;5120898;28;20180;-85
2023/01/18 12:42:03;;;;;;;1.98;1.75;;;;;;;;;;5121072;28;20226;-84
2023/01/18 12:45:03;;;;;;;2.00;1.80;;;;;;;;;;5122164;28;20625;-85
2023/01/18 12:47:38;;;;;;;2.88;2.30;;;;;;;;;;5101235;28;20286;-86
2023/01/18 12:50:15;;;;;;;3.58;2.95;;;;;;;;;;5119524;28;20319;-83
2023/01/18 12:52:48;;;;;;;3.13;2.75;;;;;;;;;;5120514;28;20183;-84
2023/01/18 12:55:20;;;;;;;4.38;2.33;;;;;;;;;;5121848;28;20262;-85
2023/01/18 12:57:50;;;;;;;3.35;2.60;;;;;;;;;;5118473;28;20629;-85
2023/01/18 13:00:25;;;;;;;2.45;2.13;;;;;;;;;;5101865;28;20276;-85
2023/01/18 13:02:57;;;;;;;3.20;2.90;;;;;;;;;;5121632;28;20255;-86
2023/01/18 13:05:33;;;;;;;3.60;3.30;;;;;;;;;;5120007;28;20223;-83
2023/01/18 13:08:08;;;;;;;4.82;3.38;;;;;;;;;;5120519;27;20666;-84
2023/01/18 13:10:37;;;;;;;5.30;3.30;;;;;;;;;;5119608;28;20271;-85
2023/01/18 13:13:05;;;;;;;4.28;3.75;;;;;;;;;;5119661;28;20223;-83
2023/01/18 13:15:41;;;;;;;3.72;3.05;;;;;;;;;;5121021;28;20227;-84
2023/01/18 13:18:14;;;;;;;3.85;2.72;;;;;;;;;;5119613;28;20207;-84
2023/01/18 13:20:55;;;;;;;5.15;2.83;;;;;;;;;;5119595;28;20203;-84
2023/01/18 13:23:33;;;;;;;3.50;3.10;;;;;;;;;;5119904;28;20251;-85
2023/01/18 13:26:12;;;;;;;3.15;2.95;;;;;;;;;;5120590;28;20286;-84
2023/01/18 13:28:39;;;;;;;5.30;3.13;;;;;;;;;;5119281;28;20256;-82
2023/01/18 13:31:07;;;;;;;3.25;2.40;;;;;;;;;;5118028;28;20707;-82
2023/01/18 13:33:38;;;;;;;4.40;3.45;;;;;;;;;;5119253;28;20226;-84
2023/01/18 13:36:08;;;;;;;3.55;2.72;;;;;;;;;;5118666;28;20310;-84
2023/01/18 13:38:39;;;;;;;4.18;3.53;;;;;;;;;;5118502;28;20259;-83
2023/01/18 13:41:09;;;;;;;4.70;3.20;;;;;;;;;;5118345;28;20190;-85
2023/01/18 13:44:02;;;;;;;3.75;3.17;;;;;;;;;;5116718;28;20203;-84
2023/01/18 13:46:34;;;;;;;2.40;2.20;;;;;;;;;;5107748;27;20220;-85
2023/01/18 13:49:17;;;;;;;2.63;2.42;;;;;;;;;;5117370;28;20200;-84
2023/01/18 13:51:53;;;;;;;2.47;2.28;;;;;;;;;;5117900;28;20680;-84
2023/01/18 13:55:02;;;;;;;2.45;2.08;;;;;;;;;;5117690;28;20599;-84
2023/01/18 13:57:32;;;;;;;4.13;2.67;;;;;;;;;;5117035;28;20589;-83
2023/01/18 14:00:01;;;;;;;4.65;2.38;;;;;;;;;;5098379;28;20222;-86
2023/01/18 14:02:33;;;;;;;3.40;2.60;;;;;;;;;;5096890;28;20737;-84
2023/01/18 14:05:21;;;;;;;3.08;2.40;;;;;;;;;;5096841;28;20183;-82
2023/01/18 14:07:52;;;;;;;2.55;2.25;;;;;;;;;;5095063;28;20188;-83
2023/01/18 14:10:30;;;;;;;2.88;2.60;;;;;;;;;;5096452;28;20641;-85
2023/01/18 14:12:59;;;;;;;2.17;1.95;;;;;;;;;;5096132;28;20223;-86
2023/01/18 14:15:45;;;;;;;3.15;2.08;;;;;;;;;;5096234;28;20671;-84
2023/01/18 14:18:22;;;;;;;2.50;2.30;;;;;;;;;;5095574;28;20192;-83
2023/01/18 14:21:08;;;;;;;2.78;1.95;;;;;;;;;;5095718;28;20227;-85
2023/01/18 14:24:04;;;;;;;2.53;2.30;;;;;;;;;;5096861;28;20191;-82
2023/01/18 14:26:35;;;;;;;2.67;2.45;;;;;;;;;;5095236;28;20311;-84
2023/01/18 14:29:07;;;;;;;5.28;3.28;;;;;;;;;;5096404;28;20610;-83
2023/01/18 14:31:38;;;;;;;8.15;7.25;;;;;;;;;;5095862;28;20613;-84
2023/01/18 14:34:34;;;;;;;5.35;3.50;;;;;;;;;;5094706;28;20243;-85
2023/01/18 14:37:01;;;;;;;3.35;3.03;;;;;;;;;;5094823;28;20303;-84
2023/01/18 14:39:32;;;;;;;2.45;1.92;;;;;;;;;;5094631;28;20223;-84
2023/01/18 14:42:03;;;;;;;2.97;2.22;;;;;;;;;;5094533;28;20208;-85
2023/01/18 14:44:39;;;;;;;6.18;3.30;;;;;;;;;;5094182;28;20204;-83
2023/01/18 14:47:15;;;;;;;5.50;4.88;;;;;;;;;;5094855;28;20215;-83
2023/01/18 14:49:43;;;;;;;2.65;2.40;;;;;;;;;;5095002;28;20629;-84
2023/01/18 14:52:15;;;;;;;2.08;1.98;;;;;;;;;;5095287;28;20210;-82
2023/01/18 14:54:48;;;;;;;2.63;2.42;;;;;;;;;;5095173;28;20317;-85
2023/01/18 14:57:17;;;;;;;4.75;2.75;;;;;;;;;;5095110;28;20212;-84
2023/01/18 14:59:51;;;;;;;8.52;4.35;;;;;;;;;;5115768;28;20298;-83
2023/01/18 15:02:23;;;;;;;6.93;4.65;;;;;;;;;;5116602;28;20190;-84
2023/01/18 15:04:53;;;;;;;9.68;6.22;;;;;;;;;;5116974;28;20621;-84
2023/01/18 15:07:26;;;;;;;4.85;3.83;;;;;;;;;;5117055;28;20237;-84
2023/01/18 15:09:54;;;;;;;5.70;5.10;;;;;;;;;;5116407;28;20291;-84
2023/01/18 15:12:31;;;;;;;3.50;3.20;;;;;;;;;;5116873;28;20497;-84
2023/01/18 15:15:04;;;;;;;3.20;2.67;;;;;;;;;;5116184;28;20586;-83
2023/01/18 15:17:32;;;;;;;2.90;2.70;;;;;;;;;;5116681;28;20616;-84
2023/01/18 15:20:04;;;;;;;2.45;2.25;;;;;;;;;;5116632;28;20271;-85
2023/01/18 15:22:34;;;;;;;2.33;1.77;;;;;;;;;;5116355;28;20176;-84
2023/01/18 15:25:02;;;;;;;1.70;1.60;;;;;;;;;;5116475;28;20188;-86
2023/01/18 15:27:33;;;;;;;1.70;1.60;;;;;;;;;;5116564;28;20213;-83
2023/01/18 15:30:02;;;;;;;1.83;1.73;;;;;;;;;;5115929;28;20215;-84
2023/01/18 15:32:31;;;;;;;1.80;1.70;;;;;;;;;;5116668;28;20209;-86
2023/01/18 15:35:00;;;;;;;1.77;1.67;;;;;;;;;;5115464;28;20225;-84
2023/01/18 15:37:31;;;;;;;3.38;1.75;;;;;;;;;;5115833;28;20239;-85
2023/01/18 15:40:00;;;;;;;1.73;1.48;;;;;;;;;;5116408;28;20190;-84
2023/01/18 15:42:33;;;;;;;1.45;1.35;;;;;;;;;;5115827;28;20223;-86
2023/01/18 15:45:01;;;;;;;1.45;1.35;;;;;;;;;;5115883;28;20598;-82